Time,TemperatureF,DewpointF,PressureIn,WindDirection,WindDirectionDegrees,WindSpeedMPH,WindSpeedGustMPH,Humidity,HourlyPrecipIn,Conditions,Clouds,dailyrainin,SoftwareType,DateUTC
2013-05-04 00:01:00,49.3,32.0,30.24,SSW,202,0.0,1.6,51,0.00,,,0.00,WUHU21623XXSP,2013-05-04 04:01:00,
2013-05-04 00:06:00,49.1,32.2,30.24,South,180,7.2,7.2,52,0.00,,,0.00,WUHU21623XXSP,2013-05-04 04:06:00,
2013-05-04 00:11:00,48.9,32.0,30.24,West,270,0.0,7.2,52,0.00,,,0.00,WUHU21623XXSP,2013-05-04 04:11:00,
2013-05-04 00:16:00,48.7,32.2,30.24,SSW,202,0.0,4.5,53,0.00,,,0.00,WUHU21623XXSP,2013-05-04 04:16:00,
2013-05-04 00:21:00,48.4,32.3,30.23,WSW,247,0.0,4.5,54,0.00,,,0.00,WUHU21623XXSP,2013-05-04 04:21:00,
2013-05-04 00:26:00,48.0,32.0,30.23,NE,45,0.0,0.0,54,0.00,,,0.00,WUHU21623XXSP,2013-05-04 04:26:00,
2013-05-04 00:31:00,47.8,32.2,30.23,NNW,337,0.0,5.6,54,0.00,,,0.00,WUHU21623XXSP,2013-05-04 04:31:00,
2013-05-04 00:36:00,47.5,32.3,30.24,North,0,0.0,5.6,55,0.00,,,0.00,WUHU21623XXSP,2013-05-04 04:36:00,
2013-05-04 00:42:00,47.5,32.3,30.23,NE,45,2.7,2.7,55,0.00,,,0.00,WUHU21623XXSP,2013-05-04 04:42:00,
2013-05-04 00:48:00,47.1,31.9,30.24,SSW,202,2.5,7.2,55,0.00,,,0.00,WUHU21623XXSP,2013-05-04 04:48:00,
2013-05-04 00:54:00,47.1,32.3,30.24,East,90,0.0,12.1,56,0.00,,,0.00,WUHU21623XXSP,2013-05-04 04:54:00,
2013-05-04 00:59:00,47.1,32.3,30.23,East,90,0.0,12.1,56,0.00,,,0.00,WUHU21623XXSP,2013-05-04 04:59:00,
2013-05-04 01:04:00,46.9,32.1,30.23,ESE,108,4.9,6.7,56,0.00,,,0.00,WUHU21623XXSP,2013-05-04 05:04:00,
2013-05-04 01:10:00,46.8,32.3,30.23,ESE,114,6.1,8.7,57,0.00,,,0.00,WUHU21623XXSP,2013-05-04 05:10:00,
2013-05-04 01:15:00,46.6,32.1,30.23,SSW,202,1.3,8.7,57,0.00,,,0.00,WUHU21623XXSP,2013-05-04 05:15:00,
2013-05-04 01:20:00,46.2,31.8,30.23,North,0,5.1,6.0,57,0.00,,,0.00,WUHU21623XXSP,2013-05-04 05:20:00,
2013-05-04 01:25:00,46.2,31.8,30.23,NNE,22,4.9,5.1,57,0.00,,,0.00,WUHU21623XXSP,2013-05-04 05:25:00,
2013-05-04 01:30:00,46.0,31.6,30.23,ENE,67,4.3,6.3,57,0.00,,,0.00,WUHU21623XXSP,2013-05-04 05:30:00,
2013-05-04 01:35:00,45.9,31.5,30.23,NW,315,0.0,6.3,57,0.00,,,0.00,WUHU21623XXSP,2013-05-04 05:35:00,
2013-05-04 01:40:00,45.7,31.6,30.23,SE,131,5.3,8.9,58,0.00,,,0.00,WUHU21623XXSP,2013-05-04 05:40:00,
2013-05-04 01:45:00,45.5,31.5,30.23,NNW,337,0.0,8.9,58,0.00,,,0.00,WUHU21623XXSP,2013-05-04 05:45:00,
2013-05-04 01:50:00,45.1,31.1,30.22,South,180,0.0,0.0,58,0.00,,,0.00,WUHU21623XXSP,2013-05-04 05:50:00,
2013-05-04 01:55:00,45.0,31.0,30.22,SSW,202,0.0,0.0,58,0.00,,,0.00,WUHU21623XXSP,2013-05-04 05:55:00,
2013-05-04 02:01:00,45.0,31.3,30.22,ENE,67,0.0,0.0,58,0.00,,,0.00,WUHU21623XXSP,2013-05-04 06:01:00,
2013-05-04 02:06:00,44.8,31.1,30.22,South,185,2.8,3.4,58,0.00,,,0.00,WUHU21623XXSP,2013-05-04 06:06:00,
2013-05-04 02:11:00,44.6,31.0,30.22,SSE,157,0.0,3.4,58,0.00,,,0.00,WUHU21623XXSP,2013-05-04 06:11:00,
2013-05-04 02:16:00,44.4,30.8,30.22,ESE,122,4.6,6.0,58,0.00,,,0.00,WUHU21623XXSP,2013-05-04 06:16:00,
2013-05-04 02:21:00,44.4,30.8,30.22,North,0,0.7,6.0,58,0.00,,,0.00,WUHU21623XXSP,2013-05-04 06:21:00,
2013-05-04 02:26:00,44.4,30.8,30.22,SSE,157,4.7,5.6,58,0.00,,,0.00,WUHU21623XXSP,2013-05-04 06:26:00,
2013-05-04 02:31:00,44.2,30.6,30.22,NNE,30,4.6,6.9,58,0.00,,,0.00,WUHU21623XXSP,2013-05-04 06:31:00,
2013-05-04 02:36:00,44.1,30.5,30.22,NNE,22,3.1,6.9,58,0.00,,,0.00,WUHU21623XXSP,2013-05-04 06:36:00,
2013-05-04 02:41:00,43.9,30.3,30.21,North,355,4.1,12.1,58,0.00,,,0.00,WUHU21623XXSP,2013-05-04 06:41:00,
2013-05-04 02:46:00,43.7,30.1,30.21,NNW,330,2.8,12.1,58,0.00,,,0.00,WUHU21623XXSP,2013-05-04 06:46:00,
2013-05-04 02:51:00,43.5,29.9,30.21,NW,325,2.0,5.4,58,0.00,,,0.00,WUHU21623XXSP,2013-05-04 06:51:00,
2013-05-04 02:56:00,43.3,30.1,30.21,NE,45,6.7,6.7,59,0.00,,,0.00,WUHU21623XXSP,2013-05-04 06:56:00,
2013-05-04 03:01:00,43.3,30.1,30.20,WSW,247,0.0,6.7,59,0.00,,,0.00,WUHU21623XXSP,2013-05-04 07:01:00,
2013-05-04 03:07:00,43.2,30.0,30.21,South,188,2.3,6.3,59,0.00,,,0.00,WUHU21623XXSP,2013-05-04 07:07:00,
2013-05-04 03:12:00,43.0,29.8,30.20,SE,138,5.4,12.8,59,0.00,,,0.00,WUHU21623XXSP,2013-05-04 07:12:00,
2013-05-04 03:17:00,42.8,29.6,30.20,East,101,4.6,12.8,59,0.00,,,0.00,WUHU21623XXSP,2013-05-04 07:17:00,
2013-05-04 03:22:00,42.8,29.6,30.20,East,82,4.9,7.8,59,0.00,,,0.00,WUHU21623XXSP,2013-05-04 07:22:00,
2013-05-04 03:27:00,42.6,29.4,30.20,North,0,2.2,7.2,59,0.00,,,0.00,WUHU21623XXSP,2013-05-04 07:27:00,
2013-05-04 03:32:00,42.6,29.4,30.20,SE,146,4.3,7.2,59,0.00,,,0.00,WUHU21623XXSP,2013-05-04 07:32:00,
2013-05-04 03:37:00,42.4,29.2,30.20,NE,37,2.4,7.2,59,0.00,,,0.00,WUHU21623XXSP,2013-05-04 07:37:00,
2013-05-04 03:42:00,42.4,29.2,30.20,NNW,337,4.9,6.7,59,0.00,,,0.00,WUHU21623XXSP,2013-05-04 07:42:00,
2013-05-04 03:48:00,42.4,29.2,30.20,North,0,0.0,8.3,59,0.00,,,0.00,WUHU21623XXSP,2013-05-04 07:48:00,
2013-05-04 03:53:00,42.4,29.2,30.20,WNW,289,3.3,8.3,59,0.00,,,0.00,WUHU21623XXSP,2013-05-04 07:53:00,
2013-05-04 03:58:00,42.1,28.9,30.20,SSW,202,0.0,7.2,59,0.00,,,0.00,WUHU21623XXSP,2013-05-04 07:58:00,
2013-05-04 04:03:00,42.1,28.9,30.20,SE,139,5.8,8.7,59,0.00,,,0.00,WUHU21623XXSP,2013-05-04 08:03:00,
2013-05-04 04:08:00,42.1,28.9,30.20,East,101,3.7,8.7,59,0.00,,,0.00,WUHU21623XXSP,2013-05-04 08:08:00,
2013-05-04 04:13:00,42.1,28.9,30.20,NNE,22,0.2,8.5,59,0.00,,,0.00,WUHU21623XXSP,2013-05-04 08:13:00,
2013-05-04 04:19:00,42.1,28.9,30.19,East,79,2.7,6.5,59,0.00,,,0.00,WUHU21623XXSP,2013-05-04 08:19:00,
2013-05-04 04:24:00,42.1,28.9,30.20,South,183,4.2,6.5,59,0.00,,,0.00,WUHU21623XXSP,2013-05-04 08:24:00,
2013-05-04 04:29:00,41.9,28.8,30.20,NNE,22,1.3,6.3,59,0.00,,,0.00,WUHU21623XXSP,2013-05-04 08:29:00,
2013-05-04 04:34:00,41.7,28.6,30.20,South,186,1.9,4.9,59,0.00,,,0.00,WUHU21623XXSP,2013-05-04 08:34:00,
2013-05-04 04:39:00,41.5,28.4,30.20,NE,44,3.7,9.2,59,0.00,,,0.00,WUHU21623XXSP,2013-05-04 08:39:00,
2013-05-04 04:44:00,41.5,28.4,30.20,NE,45,5.1,9.2,59,0.00,,,0.00,WUHU21623XXSP,2013-05-04 08:44:00,
2013-05-04 04:50:00,41.4,28.3,30.19,WSW,242,6.3,9.2,59,0.00,,,0.00,WUHU21623XXSP,2013-05-04 08:50:00,
2013-05-04 04:55:00,41.4,28.3,30.20,NW,315,2.9,9.2,59,0.00,,,0.00,WUHU21623XXSP,2013-05-04 08:55:00,
2013-05-04 04:59:00,41.4,28.3,30.19,ENE,69,7.2,9.4,59,0.00,,,0.00,WUHU21623XXSP,2013-05-04 08:59:00,
2013-05-04 05:05:00,41.5,28.4,30.19,SW,230,3.9,9.4,59,0.00,,,0.00,WUHU21623XXSP,2013-05-04 09:05:00,
2013-05-04 05:10:00,41.5,28.4,30.19,North,354,2.3,7.8,59,0.00,,,0.00,WUHU21623XXSP,2013-05-04 09:10:00,
2013-05-04 05:15:00,41.5,28.4,30.19,North,0,4.5,6.5,59,0.00,,,0.00,WUHU21623XXSP,2013-05-04 09:15:00,
2013-05-04 05:21:00,41.7,28.2,30.20,SSW,194,6.9,19.0,58,0.00,,,0.00,WUHU21623XXSP,2013-05-04 09:21:00,
2013-05-04 05:26:00,41.7,28.2,30.19,NNW,343,3.3,19.0,58,0.00,,,0.00,WUHU21623XXSP,2013-05-04 09:26:00,
2013-05-04 05:31:00,41.9,28.8,30.20,NE,48,5.8,10.1,59,0.00,,,0.00,WUHU21623XXSP,2013-05-04 09:31:00,
2013-05-04 05:36:00,41.9,28.4,30.20,NE,43,5.6,10.5,58,0.00,,,0.00,WUHU21623XXSP,2013-05-04 09:36:00,
2013-05-04 05:41:00,41.7,28.2,30.20,NNE,22,5.4,10.5,58,0.00,,,0.00,WUHU21623XXSP,2013-05-04 09:41:00,
2013-05-04 05:46:00,41.7,28.6,30.20,East,97,6.0,8.9,59,0.00,,,0.00,WUHU21623XXSP,2013-05-04 09:46:00,
2013-05-04 05:51:00,41.5,28.4,30.20,North,354,1.6,8.9,59,0.00,,,0.00,WUHU21623XXSP,2013-05-04 09:51:00,
2013-05-04 05:56:00,41.5,28.4,30.20,North,3,4.5,8.5,59,0.00,,,0.00,WUHU21623XXSP,2013-05-04 09:56:00,
2013-05-04 06:01:00,41.5,28.4,30.21,North,0,6.9,11.6,59,0.00,,,0.00,WUHU21623XXSP,2013-05-04 10:01:00,
2013-05-04 06:06:00,41.5,28.4,30.20,NNE,22,2.2,11.6,59,0.00,,,0.00,WUHU21623XXSP,2013-05-04 10:06:00,
2013-05-04 06:11:00,41.5,28.4,30.20,NNW,337,2.7,8.3,59,0.00,,,0.00,WUHU21623XXSP,2013-05-04 10:11:00,
2013-05-04 06:16:00,41.5,28.4,30.20,NNE,22,4.3,9.4,59,0.00,,,0.00,WUHU21623XXSP,2013-05-04 10:16:00,
2013-05-04 06:21:00,41.5,28.4,30.21,SW,216,3.8,9.4,59,0.00,,,0.00,WUHU21623XXSP,2013-05-04 10:21:00,
2013-05-04 06:26:00,41.5,28.7,30.21,NE,43,4.4,10.1,60,0.00,,,0.00,WUHU21623XXSP,2013-05-04 10:26:00,
2013-05-04 06:31:00,41.5,28.7,30.21,NNE,21,5.4,10.1,60,0.00,,,0.00,WUHU21623XXSP,2013-05-04 10:31:00,
2013-05-04 06:37:00,41.5,28.7,30.21,North,0,6.8,13.2,60,0.00,,,0.00,WUHU21623XXSP,2013-05-04 10:37:00,
2013-05-04 06:44:00,41.7,28.9,30.21,West,273,4.2,13.2,60,0.00,,,0.00,WUHU21623XXSP,2013-05-04 10:44:00,
2013-05-04 06:49:00,41.9,29.1,30.21,NNE,28,4.3,8.3,60,0.00,,,0.00,WUHU21623XXSP,2013-05-04 10:49:00,
2013-05-04 06:55:00,42.1,29.3,30.21,North,354,5.7,8.5,60,0.00,,,0.00,WUHU21623XXSP,2013-05-04 10:55:00,
2013-05-04 07:00:00,42.1,29.3,30.21,North,359,3.0,8.5,60,0.00,,,0.00,WUHU21623XXSP,2013-05-04 11:00:00,
2013-05-04 07:05:00,42.4,29.6,30.21,East,85,5.3,8.1,60,0.00,,,0.00,WUHU21623XXSP,2013-05-04 11:05:00,
2013-05-04 07:10:00,42.4,29.6,30.21,North,359,2.6,7.8,60,0.00,,,0.00,WUHU21623XXSP,2013-05-04 11:10:00,
2013-05-04 07:15:00,42.6,29.8,30.21,NNE,25,4.9,9.2,60,0.00,,,0.00,WUHU21623XXSP,2013-05-04 11:15:00,
2013-05-04 07:20:00,43.0,30.1,30.21,North,352,3.9,9.2,60,0.00,,,0.00,WUHU21623XXSP,2013-05-04 11:20:00,
2013-05-04 07:25:00,43.0,30.1,30.21,NNW,340,3.0,7.8,60,0.00,,,0.00,WUHU21623XXSP,2013-05-04 11:25:00,
2013-05-04 07:30:00,43.2,30.3,30.21,SE,140,8.6,12.8,60,0.00,,,0.00,WUHU21623XXSP,2013-05-04 11:30:00,
2013-05-04 07:35:00,43.3,30.4,30.21,NE,52,8.1,17.0,60,0.00,,,0.00,WUHU21623XXSP,2013-05-04 11:35:00,
2013-05-04 07:40:00,43.5,30.6,30.21,NE,45,6.5,17.0,60,0.00,,,0.00,WUHU21623XXSP,2013-05-04 11:40:00,
2013-05-04 07:45:00,43.7,30.8,30.21,NE,37,4.8,15.7,60,0.00,,,0.00,WUHU21623XXSP,2013-05-04 11:45:00,
2013-05-04 07:51:00,43.9,31.0,30.21,NNE,29,4.8,16.6,60,0.00,,,0.00,WUHU21623XXSP,2013-05-04 11:51:00,
2013-05-04 07:57:00,44.2,31.3,30.21,SSW,202,9.4,16.6,60,0.00,,,0.00,WUHU21623XXSP,2013-05-04 11:57:00,
2013-05-04 08:02:00,44.4,31.5,30.22,South,173,4.2,13.0,60,0.00,,,0.00,WUHU21623XXSP,2013-05-04 12:02:00,
2013-05-04 08:07:00,44.8,31.5,30.21,ESE,119,3.4,13.0,59,0.00,,,0.00,WUHU21623XXSP,2013-05-04 12:07:00,
2013-05-04 08:12:00,45.0,31.7,30.21,East,92,7.6,12.5,59,0.00,,,0.00,WUHU21623XXSP,2013-05-04 12:12:00,
2013-05-04 08:18:00,45.1,31.8,30.22,North,1,2.3,12.5,59,0.00,,,0.00,WUHU21623XXSP,2013-05-04 12:18:00,
2013-05-04 08:24:00,45.5,31.8,30.22,North,5,5.7,12.3,58,0.00,,,0.00,WUHU21623XXSP,2013-05-04 12:24:00,
2013-05-04 08:29:00,45.7,32.0,30.22,NE,36,2.2,9.8,58,0.00,,,0.00,WUHU21623XXSP,2013-05-04 12:29:00,
2013-05-04 08:34:00,45.7,32.0,30.22,NE,41,4.8,10.1,58,0.00,,,0.00,WUHU21623XXSP,2013-05-04 12:34:00,
2013-05-04 08:40:00,46.0,31.9,30.22,East,97,5.9,15.2,58,0.00,,,0.00,WUHU21623XXSP,2013-05-04 12:40:00,
2013-05-04 08:45:00,46.0,31.9,30.22,NNE,22,4.3,15.2,58,0.00,,,0.00,WUHU21623XXSP,2013-05-04 12:45:00,
2013-05-04 08:50:00,46.2,32.1,30.22,SE,135,4.8,17.9,58,0.00,,,0.00,WUHU21623XXSP,2013-05-04 12:50:00,
2013-05-04 08:56:00,46.8,32.7,30.22,ENE,77,5.9,11.9,58,0.00,,,0.00,WUHU21623XXSP,2013-05-04 12:56:00,
2013-05-04 09:01:00,47.1,33.0,30.22,NE,55,4.3,11.9,58,0.00,,,0.00,WUHU21623XXSP,2013-05-04 13:01:00,
2013-05-04 09:03:00,47.3,32.8,30.22,NE,45,10.7,11.9,57,0.00,,,0.00,WUHU21623XXSP,2013-05-04 13:03:00,
2013-05-04 09:08:00,47.8,32.9,30.22,NE,43,5.5,11.9,56,0.00,,,0.00,WUHU21623XXSP,2013-05-04 13:08:00,
2013-05-04 09:13:00,48.2,33.3,30.22,NNW,337,3.8,9.8,56,0.00,,,0.00,WUHU21623XXSP,2013-05-04 13:13:00,
2013-05-04 09:18:00,48.6,33.7,30.22,NNE,17,3.2,7.8,56,0.00,,,0.00,WUHU21623XXSP,2013-05-04 13:18:00,
2013-05-04 09:23:00,48.9,33.6,30.22,ENE,60,6.2,9.8,55,0.00,,,0.00,WUHU21623XXSP,2013-05-04 13:23:00,
2013-05-04 09:30:00,49.3,33.6,30.22,South,183,5.2,9.8,54,0.00,,,0.00,WUHU21623XXSP,2013-05-04 13:30:00,
2013-05-04 09:36:00,49.6,33.9,30.22,NE,55,5.7,10.5,54,0.00,,,0.00,WUHU21623XXSP,2013-05-04 13:36:00,
2013-05-04 09:41:00,49.8,33.7,30.22,ENE,62,3.7,10.5,54,0.00,,,0.00,WUHU21623XXSP,2013-05-04 13:41:00,
2013-05-04 09:46:00,50.2,34.0,30.22,ESE,120,4.0,8.3,54,0.00,,,0.00,WUHU21623XXSP,2013-05-04 13:46:00,
2013-05-04 09:51:00,50.4,33.8,30.22,ENE,62,4.8,9.4,53,0.00,,,0.00,WUHU21623XXSP,2013-05-04 13:51:00,
2013-05-04 09:56:00,50.7,34.1,30.22,NNE,22,4.3,9.4,53,0.00,,,0.00,WUHU21623XXSP,2013-05-04 13:56:00,
2013-05-04 10:01:00,51.1,34.5,30.22,ESE,106,2.8,8.3,53,0.00,,,0.00,WUHU21623XXSP,2013-05-04 14:01:00,
2013-05-04 10:06:00,51.3,34.3,30.22,ENE,73,3.9,7.6,52,0.00,,,0.00,WUHU21623XXSP,2013-05-04 14:06:00,
2013-05-04 10:11:00,51.4,34.4,30.22,NNE,23,2.2,11.0,52,0.00,,,0.00,WUHU21623XXSP,2013-05-04 14:11:00,
2013-05-04 10:16:00,52.0,34.9,30.22,ENE,62,3.2,11.0,52,0.00,,,0.00,WUHU21623XXSP,2013-05-04 14:16:00,
2013-05-04 10:21:00,52.5,35.0,30.23,SSW,202,1.1,7.4,51,0.00,,,0.00,WUHU21623XXSP,2013-05-04 14:21:00,
2013-05-04 10:26:00,52.9,35.4,30.22,SSE,157,2.5,7.8,51,0.00,,,0.00,WUHU21623XXSP,2013-05-04 14:26:00,
2013-05-04 10:32:00,53.4,35.4,30.22,ESE,117,3.6,7.6,50,0.00,,,0.00,WUHU21623XXSP,2013-05-04 14:32:00,
2013-05-04 10:38:00,54.0,36.0,30.22,NNE,22,0.0,6.7,50,0.00,,,0.00,WUHU21623XXSP,2013-05-04 14:38:00,
2013-05-04 10:43:00,54.3,35.4,30.22,NNE,22,4.2,6.7,49,0.00,,,0.00,WUHU21623XXSP,2013-05-04 14:43:00,
2013-05-04 10:48:00,54.9,35.5,30.22,NNE,22,4.7,10.5,48,0.00,,,0.00,WUHU21623XXSP,2013-05-04 14:48:00,
2013-05-04 10:53:00,55.0,35.6,30.22,NE,48,3.4,10.5,48,0.00,,,0.00,WUHU21623XXSP,2013-05-04 14:53:00,
2013-05-04 10:58:00,55.6,36.6,30.22,NNE,22,5.4,6.9,49,0.00,,,0.00,WUHU21623XXSP,2013-05-04 14:58:00,
2013-05-04 11:03:00,56.3,36.4,30.22,NE,37,2.8,6.0,47,0.00,,,0.00,WUHU21623XXSP,2013-05-04 15:03:00,
2013-05-04 11:08:00,56.8,35.9,30.22,NE,41,3.8,8.3,46,0.00,,,0.00,WUHU21623XXSP,2013-05-04 15:08:00,
2013-05-04 11:13:00,57.0,36.1,30.22,NNE,22,3.2,8.3,46,0.00,,,0.00,WUHU21623XXSP,2013-05-04 15:13:00,
2013-05-04 11:18:00,57.7,36.8,30.22,ENE,61,6.0,7.8,46,0.00,,,0.00,WUHU21623XXSP,2013-05-04 15:18:00,
2013-05-04 11:24:00,58.3,36.4,30.22,NE,41,5.6,12.8,44,0.00,,,0.00,WUHU21623XXSP,2013-05-04 15:24:00,
2013-05-04 11:30:00,58.8,36.4,30.22,NNE,22,5.4,12.8,43,0.00,,,0.00,WUHU21623XXSP,2013-05-04 15:30:00,
2013-05-04 11:35:00,59.4,36.4,30.21,NE,53,4.1,19.0,42,0.00,,,0.00,WUHU21623XXSP,2013-05-04 15:35:00,
2013-05-04 11:40:00,59.9,36.4,30.22,NNE,22,3.2,19.0,42,0.00,,,0.00,WUHU21623XXSP,2013-05-04 15:40:00,
2013-05-04 11:45:00,60.6,37.5,30.22,NNE,22,0.0,6.0,42,0.00,,,0.00,WUHU21623XXSP,2013-05-04 15:45:00,
2013-05-04 11:50:00,61.2,36.5,30.21,NW,304,2.4,7.2,40,0.00,,,0.00,WUHU21623XXSP,2013-05-04 15:50:00,
2013-05-04 11:55:00,61.5,36.3,30.21,NNE,22,3.3,8.3,39,0.00,,,0.00,WUHU21623XXSP,2013-05-04 15:55:00,
2013-05-04 12:00:00,62.2,36.9,30.21,ENE,63,4.5,8.3,39,0.00,,,0.00,WUHU21623XXSP,2013-05-04 16:00:00,
2013-05-04 12:05:00,62.4,37.6,30.20,NE,45,8.3,8.3,40,0.00,,,0.00,WUHU21623XXSP,2013-05-04 16:05:00,
2013-05-04 12:10:00,62.8,37.4,30.21,ENE,73,4.9,9.8,39,0.00,,,0.00,WUHU21623XXSP,2013-05-04 16:10:00,
2013-05-04 12:15:00,63.1,37.7,30.20,NE,45,7.4,9.8,39,0.00,,,0.00,WUHU21623XXSP,2013-05-04 16:15:00,
2013-05-04 12:20:00,64.0,38.5,30.20,NE,45,3.5,7.8,39,0.00,,,0.00,WUHU21623XXSP,2013-05-04 16:20:00,
2013-05-04 12:25:00,64.2,37.6,30.20,North,11,1.1,7.8,38,0.00,,,0.00,WUHU21623XXSP,2013-05-04 16:25:00,
2013-05-04 12:30:00,64.6,38.0,30.20,NE,49,3.2,15.2,38,0.00,,,0.00,WUHU21623XXSP,2013-05-04 16:30:00,
2013-05-04 12:35:00,64.8,38.7,30.20,ENE,61,1.3,15.2,38,0.00,,,0.00,WUHU21623XXSP,2013-05-04 16:35:00,
2013-05-04 12:40:00,65.3,38.0,30.20,NNE,26,3.6,6.3,37,0.00,,,0.00,WUHU21623XXSP,2013-05-04 16:40:00,
2013-05-04 12:45:00,65.5,37.6,30.20,SSW,199,4.6,9.4,36,0.00,,,0.00,WUHU21623XXSP,2013-05-04 16:45:00,
2013-05-04 12:50:00,65.5,37.6,30.20,NE,39,5.8,9.4,36,0.00,,,0.00,WUHU21623XXSP,2013-05-04 16:50:00,
2013-05-04 12:55:00,65.3,36.9,30.20,NNE,22,5.8,10.1,35,0.00,,,0.00,WUHU21623XXSP,2013-05-04 16:55:00,
2013-05-04 13:00:00,65.1,37.3,30.20,South,172,4.3,10.7,36,0.00,,,0.00,WUHU21623XXSP,2013-05-04 17:00:00,
2013-05-04 13:05:00,65.1,37.3,30.20,ESE,108,2.2,15.7,36,0.00,,,0.00,WUHU21623XXSP,2013-05-04 17:05:00,
2013-05-04 13:10:00,65.3,37.5,30.19,NNE,33,4.4,15.7,36,0.00,,,0.00,WUHU21623XXSP,2013-05-04 17:10:00,
2013-05-04 13:15:00,65.8,37.9,30.19,ENE,78,1.5,13.4,36,0.00,,,0.00,WUHU21623XXSP,2013-05-04 17:15:00,
2013-05-04 13:20:00,66.2,37.7,30.20,NNW,339,2.6,13.4,35,0.00,,,0.00,WUHU21623XXSP,2013-05-04 17:20:00,
2013-05-04 13:25:00,66.7,38.1,30.19,NE,45,1.5,7.4,35,0.00,,,0.00,WUHU21623XXSP,2013-05-04 17:25:00,
2013-05-04 13:30:00,66.9,38.3,30.19,NE,45,8.5,8.5,35,0.00,,,0.00,WUHU21623XXSP,2013-05-04 17:30:00,
2013-05-04 13:36:00,67.3,38.7,30.19,NE,45,5.4,8.5,35,0.00,,,0.00,WUHU21623XXSP,2013-05-04 17:36:00,
2013-05-04 13:41:00,67.6,38.9,30.18,SE,135,3.1,5.6,35,0.00,,,0.00,WUHU21623XXSP,2013-05-04 17:41:00,
2013-05-04 13:46:00,67.8,39.1,30.19,ENE,67,0.0,5.6,35,0.00,,,0.00,WUHU21623XXSP,2013-05-04 17:46:00,
2013-05-04 13:51:00,67.8,37.9,30.18,NE,56,2.6,6.7,34,0.00,,,0.00,WUHU21623XXSP,2013-05-04 17:51:00,
2013-05-04 13:56:00,67.8,38.5,30.18,NNE,24,3.9,6.7,34,0.00,,,0.00,WUHU21623XXSP,2013-05-04 17:56:00,
2013-05-04 14:01:00,67.6,37.7,30.18,NNW,342,4.1,10.3,34,0.00,,,0.00,WUHU21623XXSP,2013-05-04 18:01:00,
2013-05-04 14:06:00,67.3,38.1,30.18,NW,315,0.4,10.3,34,0.00,,,0.00,WUHU21623XXSP,2013-05-04 18:06:00,
2013-05-04 14:11:00,67.3,37.5,30.18,ESE,112,2.9,7.4,34,0.00,,,0.00,WUHU21623XXSP,2013-05-04 18:11:00,
2013-05-04 14:16:00,66.9,37.7,30.18,North,0,0.0,7.4,34,0.00,,,0.00,WUHU21623XXSP,2013-05-04 18:16:00,
2013-05-04 14:21:00,67.1,37.9,30.17,NE,45,5.9,15.2,34,0.00,,,0.00,WUHU21623XXSP,2013-05-04 18:21:00,
2013-05-04 14:26:00,67.3,37.5,30.18,NNE,22,3.7,15.2,34,0.00,,,0.00,WUHU21623XXSP,2013-05-04 18:26:00,
2013-05-04 14:31:00,67.3,37.5,30.17,WSW,251,4.1,5.8,34,0.00,,,0.00,WUHU21623XXSP,2013-05-04 18:31:00,
2013-05-04 14:36:00,67.3,37.5,30.17,SE,135,3.4,5.8,34,0.00,,,0.00,WUHU21623XXSP,2013-05-04 18:36:00,
2013-05-04 14:41:00,67.6,37.7,30.17,NE,45,9.8,11.6,34,0.00,,,0.00,WUHU21623XXSP,2013-05-04 18:41:00,
2013-05-04 14:46:00,68.2,38.3,30.17,NE,39,4.7,11.6,34,0.00,,,0.00,WUHU21623XXSP,2013-05-04 18:46:00,
2013-05-04 14:51:00,68.7,38.7,30.17,ENE,67,3.4,11.2,34,0.00,,,0.00,WUHU21623XXSP,2013-05-04 18:51:00,
2013-05-04 14:56:00,69.6,38.2,30.16,ENE,62,5.4,13.6,32,0.00,,,0.00,WUHU21623XXSP,2013-05-04 18:56:00,
2013-05-04 15:01:00,70.0,37.9,30.16,WSW,247,2.3,13.6,31,0.00,,,0.00,WUHU21623XXSP,2013-05-04 19:01:00,
2013-05-04 15:06:00,70.0,37.9,30.16,West,260,6.4,12.3,31,0.00,,,0.00,WUHU21623XXSP,2013-05-04 19:06:00,
2013-05-04 15:11:00,70.0,37.9,30.16,ESE,115,4.8,12.3,31,0.00,,,0.00,WUHU21623XXSP,2013-05-04 19:11:00,
2013-05-04 15:16:00,70.2,38.8,30.16,WSW,237,4.4,7.6,32,0.00,,,0.00,WUHU21623XXSP,2013-05-04 19:16:00,
2013-05-04 15:21:00,70.7,38.6,30.16,WSW,247,5.1,10.1,31,0.00,,,0.00,WUHU21623XXSP,2013-05-04 19:21:00,
2013-05-04 15:26:00,70.7,37.2,30.15,WSW,247,2.7,10.1,30,0.00,,,0.00,WUHU21623XXSP,2013-05-04 19:26:00,
2013-05-04 15:31:00,70.7,37.9,30.15,WSW,239,4.5,8.9,30,0.00,,,0.00,WUHU21623XXSP,2013-05-04 19:31:00,
2013-05-04 15:36:00,70.9,37.4,30.15,ENE,62,6.4,13.2,30,0.00,,,0.00,WUHU21623XXSP,2013-05-04 19:36:00,
2013-05-04 15:41:00,70.3,38.2,30.15,NNW,330,3.4,13.2,31,0.00,,,0.00,WUHU21623XXSP,2013-05-04 19:41:00,
2013-05-04 15:46:00,70.2,38.1,30.15,NE,35,3.8,9.2,31,0.00,,,0.00,WUHU21623XXSP,2013-05-04 19:46:00,
2013-05-04 15:51:00,70.0,37.3,30.15,SW,221,3.4,9.2,30,0.00,,,0.00,WUHU21623XXSP,2013-05-04 19:51:00,
2013-05-04 15:56:00,70.0,37.9,30.14,NNE,22,7.2,8.3,31,0.00,,,0.00,WUHU21623XXSP,2013-05-04 19:56:00,
2013-05-04 16:01:00,70.2,38.1,30.14,WSW,247,1.8,7.2,31,0.00,,,0.00,WUHU21623XXSP,2013-05-04 20:01:00,
2013-05-04 16:06:00,70.2,36.8,30.14,WSW,247,2.6,18.1,30,0.00,,,0.00,WUHU21623XXSP,2013-05-04 20:06:00,
2013-05-04 16:11:00,70.3,37.5,30.14,WSW,247,4.6,18.1,30,0.00,,,0.00,WUHU21623XXSP,2013-05-04 20:11:00,
2013-05-04 16:16:00,70.7,37.2,30.14,WSW,247,5.4,13.6,30,0.00,,,0.00,WUHU21623XXSP,2013-05-04 20:16:00,
2013-05-04 16:21:00,71.2,38.3,30.14,WSW,242,6.5,11.6,30,0.00,,,0.00,WUHU21623XXSP,2013-05-04 20:21:00,
2013-05-04 16:26:00,71.4,38.5,30.14,WSW,247,2.0,11.6,30,0.00,,,0.00,WUHU21623XXSP,2013-05-04 20:26:00,
2013-05-04 16:31:00,71.8,38.9,30.13,WSW,247,5.1,11.2,30,0.00,,,0.00,WUHU21623XXSP,2013-05-04 20:31:00,
2013-05-04 16:37:00,71.8,37.5,30.13,ESE,112,6.9,11.2,29,0.00,,,0.00,WUHU21623XXSP,2013-05-04 20:37:00,
2013-05-04 16:42:00,71.2,38.3,30.13,WSW,247,5.4,8.5,30,0.00,,,0.00,WUHU21623XXSP,2013-05-04 20:42:00,
2013-05-04 16:47:00,71.2,37.0,30.13,WSW,247,5.3,9.6,29,0.00,,,0.00,WUHU21623XXSP,2013-05-04 20:47:00,
2013-05-04 16:52:00,70.7,37.2,30.13,WSW,247,5.1,9.6,30,0.00,,,0.00,WUHU21623XXSP,2013-05-04 20:52:00,
2013-05-04 16:57:00,70.5,36.4,30.13,WSW,247,5.4,8.1,29,0.00,,,0.00,WUHU21623XXSP,2013-05-04 20:57:00,
2013-05-04 17:02:00,70.3,36.9,30.13,WSW,247,4.5,11.2,30,0.00,,,0.00,WUHU21623XXSP,2013-05-04 21:02:00,
2013-05-04 17:07:00,70.5,37.0,30.13,WSW,247,2.0,11.2,30,0.00,,,0.00,WUHU21623XXSP,2013-05-04 21:07:00,
2013-05-04 17:12:00,70.5,37.0,30.13,WSW,247,3.1,6.0,30,0.00,,,0.00,WUHU21623XXSP,2013-05-04 21:12:00,
2013-05-04 17:17:00,70.9,37.4,30.13,WSW,247,5.9,8.5,30,0.00,,,0.00,WUHU21623XXSP,2013-05-04 21:17:00,
2013-05-04 17:22:00,70.9,37.4,30.13,WSW,247,3.3,8.5,30,0.00,,,0.00,WUHU21623XXSP,2013-05-04 21:22:00,
2013-05-04 17:27:00,71.2,37.7,30.13,WSW,247,4.8,12.1,30,0.00,,,0.00,WUHU21623XXSP,2013-05-04 21:27:00,
2013-05-04 17:32:00,71.8,37.5,30.13,WSW,247,6.0,12.1,29,0.00,,,0.00,WUHU21623XXSP,2013-05-04 21:32:00,
2013-05-04 17:38:00,71.8,37.5,30.13,WSW,247,4.8,6.9,29,0.00,,,0.00,WUHU21623XXSP,2013-05-04 21:38:00,
2013-05-04 17:42:00,72.3,37.9,30.13,WSW,247,5.1,6.0,29,0.00,,,0.00,WUHU21623XXSP,2013-05-04 21:42:00,
2013-05-04 17:48:00,72.3,37.2,30.13,WSW,247,2.6,11.4,28,0.00,,,0.00,WUHU21623XXSP,2013-05-04 21:48:00,
2013-05-04 17:53:00,72.1,37.0,30.13,WSW,247,3.6,11.4,28,0.00,,,0.00,WUHU21623XXSP,2013-05-04 21:53:00,
2013-05-04 17:58:00,71.8,36.8,30.13,WSW,251,3.7,11.0,28,0.00,,,0.00,WUHU21623XXSP,2013-05-04 21:58:00,
2013-05-04 18:03:00,71.8,36.8,30.13,WSW,247,1.3,11.0,28,0.00,,,0.00,WUHU21623XXSP,2013-05-04 22:03:00,
2013-05-04 18:08:00,71.4,36.4,30.13,WSW,247,3.6,10.5,28,0.00,,,0.00,WUHU21623XXSP,2013-05-04 22:08:00,
2013-05-04 18:13:00,71.4,36.4,30.13,WSW,247,3.7,10.5,28,0.00,,,0.00,WUHU21623XXSP,2013-05-04 22:13:00,
2013-05-04 18:18:00,71.2,37.0,30.13,WSW,247,3.6,7.6,29,0.00,,,0.00,WUHU21623XXSP,2013-05-04 22:18:00,
2013-05-04 18:23:00,70.7,35.8,30.13,WSW,247,5.4,6.5,28,0.00,,,0.00,WUHU21623XXSP,2013-05-04 22:23:00,
2013-05-04 18:28:00,70.3,36.2,30.13,WSW,247,0.9,12.8,29,0.00,,,0.00,WUHU21623XXSP,2013-05-04 22:28:00,
2013-05-04 18:33:00,69.6,35.6,30.13,WSW,247,1.3,12.8,29,0.00,,,0.00,WUHU21623XXSP,2013-05-04 22:33:00,
2013-05-04 18:38:00,68.9,35.7,30.13,WSW,255,4.3,11.9,30,0.00,,,0.00,WUHU21623XXSP,2013-05-04 22:38:00,
2013-05-04 18:43:00,67.8,34.7,30.13,NNE,22,0.0,11.9,30,0.00,,,0.00,WUHU21623XXSP,2013-05-04 22:43:00,
2013-05-04 18:48:00,67.3,34.9,30.13,NE,45,2.7,7.4,30,0.00,,,0.00,WUHU21623XXSP,2013-05-04 22:48:00,
2013-05-04 18:53:00,66.4,34.2,30.13,North,11,1.6,6.5,30,0.00,,,0.00,WUHU21623XXSP,2013-05-04 22:53:00,
2013-05-04 18:58:00,65.7,34.2,30.13,North,353,4.5,7.2,31,0.00,,,0.00,WUHU21623XXSP,2013-05-04 22:58:00,
2013-05-04 19:03:00,64.9,33.5,30.13,East,100,5.2,7.2,31,0.00,,,0.00,WUHU21623XXSP,2013-05-04 23:03:00,
2013-05-04 19:08:00,64.2,33.5,30.13,SSE,157,0.0,6.5,32,0.00,,,0.00,WUHU21623XXSP,2013-05-04 23:08:00,
2013-05-04 19:13:00,63.7,33.7,30.12,NNE,15,4.3,5.8,33,0.00,,,0.00,WUHU21623XXSP,2013-05-04 23:13:00,
2013-05-04 19:18:00,63.1,33.2,30.12,NE,45,5.4,5.8,33,0.00,,,0.00,WUHU21623XXSP,2013-05-04 23:18:00,
2013-05-04 19:23:00,62.8,32.9,30.13,NE,45,1.1,5.4,33,0.00,,,0.00,WUHU21623XXSP,2013-05-04 23:23:00,
2013-05-04 19:28:00,62.4,33.1,30.12,North,0,0.0,7.6,34,0.00,,,0.00,WUHU21623XXSP,2013-05-04 23:28:00,
2013-05-04 19:33:00,61.7,33.1,30.13,SW,226,0.6,7.6,34,0.00,,,0.00,WUHU21623XXSP,2013-05-04 23:33:00,
2013-05-04 19:38:00,61.0,33.1,30.13,SSW,202,0.7,5.8,35,0.00,,,0.00,WUHU21623XXSP,2013-05-04 23:38:00,
2013-05-04 19:43:00,60.1,32.8,30.13,ENE,67,0.0,3.4,36,0.00,,,0.00,WUHU21623XXSP,2013-05-04 23:43:00,
2013-05-04 19:48:00,59.7,32.5,30.13,SSE,157,7.4,7.4,36,0.00,,,0.00,WUHU21623XXSP,2013-05-04 23:48:00,
2013-05-04 19:53:00,58.8,32.2,30.13,North,0,0.0,7.4,37,0.00,,,0.00,WUHU21623XXSP,2013-05-04 23:53:00,
2013-05-04 19:58:00,58.6,32.6,30.13,East,90,5.1,5.6,38,0.00,,,0.00,WUHU21623XXSP,2013-05-04 23:58:00,
2013-05-04 20:03:00,58.1,32.2,30.14,NE,45,0.0,5.6,38,0.00,,,0.00,WUHU21623XXSP,2013-05-05 00:03:00,
2013-05-04 20:08:00,57.7,32.3,30.14,NE,45,0.0,2.5,38,0.00,,,0.00,WUHU21623XXSP,2013-05-05 00:08:00,
2013-05-04 20:13:00,57.0,32.2,30.13,NE,39,2.3,3.4,39,0.00,,,0.00,WUHU21623XXSP,2013-05-05 00:13:00,
2013-05-04 20:18:00,56.8,32.6,30.14,NNE,22,0.0,3.4,40,0.00,,,0.00,WUHU21623XXSP,2013-05-05 00:18:00,
2013-05-04 20:23:00,56.3,32.1,30.14,NE,45,0.0,0.0,40,0.00,,,0.00,WUHU21623XXSP,2013-05-05 00:23:00,
2013-05-04 20:28:00,55.9,32.3,30.14,NNW,337,0.0,0.0,41,0.00,,,0.00,WUHU21623XXSP,2013-05-05 00:28:00,
2013-05-04 20:33:00,55.6,32.0,30.14,ENE,67,0.0,3.8,41,0.00,,,0.00,WUHU21623XXSP,2013-05-05 00:33:00,
2013-05-04 20:38:00,55.2,32.1,30.14,NNW,337,0.0,3.8,42,0.00,,,0.00,WUHU21623XXSP,2013-05-05 00:38:00,
2013-05-04 20:43:00,55.2,32.1,30.14,NE,45,0.0,3.4,42,0.00,,,0.00,WUHU21623XXSP,2013-05-05 00:43:00,
2013-05-04 20:48:00,55.0,32.4,30.14,SSW,202,0.0,3.4,42,0.00,,,0.00,WUHU21623XXSP,2013-05-05 00:48:00,
2013-05-04 20:53:00,54.7,32.1,30.14,South,180,0.0,0.0,42,0.00,,,0.00,WUHU21623XXSP,2013-05-05 00:53:00,
2013-05-04 20:58:00,54.7,32.6,30.15,East,90,0.0,7.4,43,0.00,,,0.00,WUHU21623XXSP,2013-05-05 00:58:00,
2013-05-04 21:05:00,54.3,32.3,30.15,NE,45,2.9,3.8,43,0.00,,,0.00,WUHU21623XXSP,2013-05-05 01:05:00,
2013-05-04 21:10:00,54.1,32.1,30.15,NNE,22,0.0,3.8,43,0.00,,,0.00,WUHU21623XXSP,2013-05-05 01:10:00,
2013-05-04 21:15:00,54.1,32.5,30.15,NE,45,2.0,2.2,44,0.00,,,0.00,WUHU21623XXSP,2013-05-05 01:15:00,
2013-05-04 21:20:00,53.8,32.3,30.15,NE,45,0.0,2.0,44,0.00,,,0.00,WUHU21623XXSP,2013-05-05 01:20:00,
2013-05-04 21:25:00,53.8,32.7,30.16,NNW,337,1.1,3.4,45,0.00,,,0.00,WUHU21623XXSP,2013-05-05 01:25:00,
2013-05-04 21:30:00,53.4,32.4,30.15,NNE,22,0.0,3.4,45,0.00,,,0.00,WUHU21623XXSP,2013-05-05 01:30:00,
2013-05-04 21:35:00,53.4,32.4,30.16,SE,135,3.1,3.1,45,0.00,,,0.00,WUHU21623XXSP,2013-05-05 01:35:00,
2013-05-04 21:40:00,53.4,32.4,30.16,North,0,0.0,3.1,45,0.00,,,0.00,WUHU21623XXSP,2013-05-05 01:40:00,
2013-05-04 21:45:00,53.2,32.6,30.15,ESE,112,0.9,2.5,46,0.00,,,0.00,WUHU21623XXSP,2013-05-05 01:45:00,
2013-05-04 21:50:00,53.2,32.6,30.16,ENE,67,0.0,2.2,46,0.00,,,0.00,WUHU21623XXSP,2013-05-05 01:50:00,
2013-05-04 21:55:00,53.1,32.5,30.16,NW,315,0.0,0.2,46,0.00,,,0.00,WUHU21623XXSP,2013-05-05 01:55:00,
2013-05-04 22:00:00,52.9,32.4,30.16,NE,45,2.9,2.9,46,0.00,,,0.00,WUHU21623XXSP,2013-05-05 02:00:00,
2013-05-04 22:05:00,52.9,32.4,30.16,ENE,67,0.0,2.9,46,0.00,,,0.00,WUHU21623XXSP,2013-05-05 02:05:00,
2013-05-04 22:10:00,52.5,32.4,30.17,South,180,7.8,7.8,46,0.00,,,0.00,WUHU21623XXSP,2013-05-05 02:10:00,
2013-05-04 22:15:00,52.5,32.4,30.16,NE,45,3.8,7.8,46,0.00,,,0.00,WUHU21623XXSP,2013-05-05 02:15:00,
2013-05-04 22:20:00,52.3,32.3,30.16,North,9,4.1,5.6,46,0.00,,,0.00,WUHU21623XXSP,2013-05-05 02:20:00,
2013-05-04 22:25:00,52.5,32.4,30.16,NNE,22,0.7,5.6,46,0.00,,,0.00,WUHU21623XXSP,2013-05-05 02:25:00,
2013-05-04 22:30:00,52.3,32.3,30.17,NE,38,1.7,3.6,46,0.00,,,0.00,WUHU21623XXSP,2013-05-05 02:30:00,
2013-05-04 22:35:00,52.5,32.0,30.17,NE,34,3.7,6.7,46,0.00,,,0.00,WUHU21623XXSP,2013-05-05 02:35:00,
2013-05-04 22:40:00,52.3,31.8,30.17,NE,45,5.1,6.7,46,0.00,,,0.00,WUHU21623XXSP,2013-05-05 02:40:00,
2013-05-04 22:45:00,52.3,31.8,30.17,ENE,67,2.5,5.1,46,0.00,,,0.00,WUHU21623XXSP,2013-05-05 02:45:00,
2013-05-04 22:50:00,52.2,31.7,30.16,NNE,22,1.1,5.1,46,0.00,,,0.00,WUHU21623XXSP,2013-05-05 02:50:00,
2013-05-04 22:55:00,52.0,32.0,30.16,NE,45,0.0,4.9,46,0.00,,,0.00,WUHU21623XXSP,2013-05-05 02:55:00,
2013-05-04 23:00:00,51.6,31.6,30.16,NNW,337,2.0,2.0,46,0.00,,,0.00,WUHU21623XXSP,2013-05-05 03:00:00,
2013-05-04 23:05:00,51.4,31.4,30.16,NNE,22,0.4,2.0,46,0.00,,,0.00,WUHU21623XXSP,2013-05-05 03:05:00,
2013-05-04 23:10:00,51.3,31.3,30.16,NNE,22,0.2,0.4,46,0.00,,,0.00,WUHU21623XXSP,2013-05-05 03:10:00,
2013-05-04 23:15:00,51.1,31.2,30.16,NNE,22,0.0,0.2,46,0.00,,,0.00,WUHU21623XXSP,2013-05-05 03:15:00,
2013-05-04 23:20:00,50.7,31.2,30.16,NE,45,0.0,0.0,47,0.00,,,0.00,WUHU21623XXSP,2013-05-05 03:20:00,
2013-05-04 23:25:00,50.5,31.0,30.16,NE,45,0.0,0.0,47,0.00,,,0.00,WUHU21623XXSP,2013-05-05 03:25:00,
2013-05-04 23:30:00,50.2,30.8,30.17,NE,45,0.0,0.0,47,0.00,,,0.00,WUHU21623XXSP,2013-05-05 03:30:00,
2013-05-04 23:38:00,49.8,30.8,30.16,SE,135,0.0,0.0,48,0.00,,,0.00,WUHU21623XXSP,2013-05-05 03:38:00,
2013-05-04 23:43:00,49.6,30.6,30.16,East,90,0.0,0.0,48,0.00,,,0.00,WUHU21623XXSP,2013-05-05 03:43:00,
2013-05-04 23:48:00,49.3,30.4,30.17,ENE,67,0.0,0.0,48,0.00,,,0.00,WUHU21623XXSP,2013-05-05 03:48:00,
2013-05-04 23:53:00,49.1,30.6,30.16,ENE,67,0.0,0.0,49,0.00,,,0.00,WUHU21623XXSP,2013-05-05 03:53:00,
2013-05-04 23:58:00,48.7,30.2,30.17,ENE,67,0.0,0.0,49,0.00,,,0.00,WUHU21623XXSP,2013-05-05 03:58:00,